CheckWX is a tool to help pilots better visualize weather data.  It is not intended as a substitute for an official pre-flight weather briefing.

07:48:19 UTC

PLCH TAF
Cassidy International Airport
Banana, Kiribati
TAF PLCH 210523Z 2106/2206 09007KT 9999 FEW020

Nov-21@
06:00 UTC

Nov-21 @ 06:00 UTC

Nov-22@
06:00 UTC

Nov-22 @ 06:00 UTC

TAF PLCH 210523Z 2106/2206 09007KT 9999 FEW020
Wind
  • 090° at 7 KTS
Cloud Levels
  • Few at 2,000' AGL